Time;durP1;ratioP1;P1;durP2;ratioP2;P2;SDS_P1;SDS_P2;PMS_P1;PMS_P2;Temp;Humidity;BMP_temperature;BMP_pressure;BME280_temperature;BME280_humidity;BME280_pressure;Samples;Min_cycle;Max_cycle;Signal;HPM_P1;HPM_P2
2023/05/21 00:00:52;;;;;;;25.87;23.80;;;;;;;;;;5016062;28;20466;-82
2023/05/21 00:03:19;;;;;;;25.80;23.77;;;;;;;;;;5016285;28;20456;-81
2023/05/21 00:05:48;;;;;;;25.70;24.00;;;;;;;;;;5015734;28;20579;-81
2023/05/21 00:08:16;;;;;;;25.60;24.00;;;;;;;;;;5022607;28;20478;-80
2023/05/21 00:10:43;;;;;;;23.50;22.10;;;;;;;;;;5022448;28;20488;-81
2023/05/21 00:13:11;;;;;;;26.20;24.50;;;;;;;;;;5022920;28;20456;-81
2023/05/21 00:15:39;;;;;;;25.53;23.63;;;;;;;;;;5021946;28;20456;-81
2023/05/21 00:18:06;;;;;;;25.43;23.80;;;;;;;;;;5022894;28;20919;-81
2023/05/21 00:20:33;;;;;;;27.50;25.70;;;;;;;;;;5022101;28;20522;-81
2023/05/21 00:23:02;;;;;;;25.93;24.20;;;;;;;;;;5022767;28;20962;-81
2023/05/21 00:25:29;;;;;;;26.40;24.30;;;;;;;;;;5022515;28;20857;-81
2023/05/21 00:27:57;;;;;;;26.50;24.73;;;;;;;;;;5023054;28;20452;-80
2023/05/21 00:30:25;;;;;;;25.43;23.83;;;;;;;;;;5022788;28;20578;-81
2023/05/21 00:32:52;;;;;;;24.63;23.13;;;;;;;;;;5023018;28;20431;-81
2023/05/21 00:35:19;;;;;;;27.47;25.47;;;;;;;;;;5022080;28;20966;-81
2023/05/21 00:37:46;;;;;;;26.00;24.30;;;;;;;;;;5021823;28;20474;-82
2023/05/21 00:40:13;;;;;;;26.83;25.10;;;;;;;;;;5021840;28;20457;-80
2023/05/21 00:42:40;;;;;;;26.37;24.30;;;;;;;;;;5022229;28;20447;-81
2023/05/21 00:45:08;;;;;;;26.03;24.27;;;;;;;;;;5022027;28;20466;-81
2023/05/21 00:47:37;;;;;;;27.60;25.63;;;;;;;;;;5022098;28;20443;-81
2023/05/21 00:50:05;;;;;;;26.50;24.70;;;;;;;;;;5022691;28;20480;-82
2023/05/21 00:52:40;;;;;;;25.90;24.10;;;;;;;;;;5022084;28;20897;-81
2023/05/21 00:55:07;;;;;;;27.07;25.37;;;;;;;;;;5022290;28;20418;-80
2023/05/21 00:57:35;;;;;;;26.50;24.80;;;;;;;;;;5022214;28;20780;-80
2023/05/21 01:00:05;;;;;;;26.07;24.40;;;;;;;;;;5022050;28;20489;-80
2023/05/21 01:02:33;;;;;;;27.37;25.33;;;;;;;;;;5021767;28;20805;-80
2023/05/21 01:05:03;;;;;;;26.10;24.30;;;;;;;;;;5022080;28;20477;-80
2023/05/21 01:07:33;;;;;;;26.33;24.63;;;;;;;;;;5022207;28;20427;-81
2023/05/21 01:10:00;;;;;;;25.17;23.40;;;;;;;;;;5021912;28;20963;-80
2023/05/21 01:12:27;;;;;;;25.57;24.00;;;;;;;;;;5021307;28;20451;-80
2023/05/21 01:14:55;;;;;;;25.60;24.00;;;;;;;;;;5022111;28;20502;-80
2023/05/21 01:17:23;;;;;;;26.63;25.00;;;;;;;;;;5021739;28;20455;-80
2023/05/21 01:19:51;;;;;;;24.80;23.30;;;;;;;;;;5018521;28;20435;-80
2023/05/21 01:22:21;;;;;;;26.27;24.57;;;;;;;;;;5019543;28;20473;-81
2023/05/21 01:24:51;;;;;;;27.47;25.60;;;;;;;;;;5034579;28;20431;-80
2023/05/21 01:27:18;;;;;;;26.20;24.40;;;;;;;;;;5034212;28;20460;-80
2023/05/21 01:29:45;;;;;;;26.70;25.00;;;;;;;;;;5028582;28;20443;-82
2023/05/21 01:32:16;;;;;;;27.00;25.20;;;;;;;;;;5018830;28;21013;-81
2023/05/21 01:34:46;;;;;;;26.40;24.70;;;;;;;;;;5019122;28;21105;-81
2023/05/21 01:37:17;;;;;;;25.87;24.17;;;;;;;;;;5018971;28;20423;-81
2023/05/21 01:39:47;;;;;;;26.10;24.00;;;;;;;;;;5018843;28;20789;-80
2023/05/21 01:42:16;;;;;;;24.93;23.50;;;;;;;;;;5018808;28;20452;-82
2023/05/21 01:44:44;;;;;;;26.93;25.20;;;;;;;;;;5018844;28;20449;-80
2023/05/21 01:47:12;;;;;;;24.30;22.70;;;;;;;;;;5018950;28;20423;-80
2023/05/21 01:49:39;;;;;;;25.70;24.03;;;;;;;;;;5018555;28;20519;-81
2023/05/21 01:52:06;;;;;;;26.03;24.43;;;;;;;;;;5018672;28;20436;-80
2023/05/21 01:54:33;;;;;;;26.60;24.63;;;;;;;;;;5017859;28;20753;-82
2023/05/21 01:57:00;;;;;;;26.13;24.43;;;;;;;;;;5017721;28;20443;-80
2023/05/21 01:59:28;;;;;;;26.77;25.03;;;;;;;;;;5018134;28;20496;-80
2023/05/21 02:01:55;;;;;;;25.87;24.27;;;;;;;;;;5018244;28;20832;-80
2023/05/21 02:04:22;;;;;;;25.40;23.80;;;;;;;;;;5018129;28;20427;-81
2023/05/21 02:06:50;;;;;;;25.53;23.90;;;;;;;;;;5017864;28;20526;-81
2023/05/21 02:09:17;;;;;;;26.10;24.33;;;;;;;;;;5017886;28;20485;-81
2023/05/21 02:11:44;;;;;;;26.73;25.13;;;;;;;;;;5018241;28;20411;-80
2023/05/21 02:14:12;;;;;;;25.73;24.10;;;;;;;;;;5018200;28;20457;-81
2023/05/21 02:16:41;;;;;;;25.97;24.37;;;;;;;;;;5017654;28;20481;-80
2023/05/21 02:19:09;;;;;;;25.83;24.03;;;;;;;;;;5018090;28;20494;-80
2023/05/21 02:21:36;;;;;;;24.60;23.07;;;;;;;;;;5017894;28;20823;-80
2023/05/21 02:24:03;;;;;;;25.97;24.10;;;;;;;;;;5018004;28;20483;-81
2023/05/21 02:26:30;;;;;;;26.13;24.37;;;;;;;;;;5016877;28;20503;-80
2023/05/21 02:28:57;;;;;;;25.83;24.27;;;;;;;;;;5017633;28;21318;-81
2023/05/21 02:31:24;;;;;;;25.70;24.10;;;;;;;;;;5017124;28;20919;-81
2023/05/21 02:33:52;;;;;;;25.40;23.80;;;;;;;;;;5017354;28;20950;-80
2023/05/21 02:36:19;;;;;;;26.10;24.40;;;;;;;;;;5016459;28;20866;-81
2023/05/21 02:38:46;;;;;;;25.37;23.67;;;;;;;;;;5017075;28;20449;-80
2023/05/21 02:41:13;;;;;;;26.90;25.10;;;;;;;;;;5017043;28;20427;-81
2023/05/21 02:43:40;;;;;;;25.23;23.53;;;;;;;;;;5017340;28;20419;-80
2023/05/21 02:46:07;;;;;;;24.50;22.83;;;;;;;;;;5016291;28;20851;-80
2023/05/21 02:48:35;;;;;;;25.37;23.60;;;;;;;;;;5016997;28;20493;-80
2023/05/21 02:51:03;;;;;;;25.20;23.50;;;;;;;;;;5016584;28;20530;-81
2023/05/21 02:53:30;;;;;;;25.40;23.80;;;;;;;;;;5017197;28;20503;-80
2023/05/21 02:55:57;;;;;;;26.03;24.30;;;;;;;;;;5016440;28;20495;-79
2023/05/21 02:58:24;;;;;;;24.50;23.00;;;;;;;;;;5016278;28;20476;-80
2023/05/21 03:00:52;;;;;;;25.40;23.70;;;;;;;;;;5016839;28;20468;-80
2023/05/21 03:03:19;;;;;;;25.60;23.90;;;;;;;;;;5017156;28;20448;-81
2023/05/21 03:05:47;;;;;;;27.17;25.57;;;;;;;;;;5016703;28;20888;-81
2023/05/21 03:08:15;;;;;;;26.73;25.03;;;;;;;;;;5016213;28;20526;-81
2023/05/21 03:10:42;;;;;;;25.93;24.33;;;;;;;;;;5016560;28;20563;-81
2023/05/21 03:13:09;;;;;;;26.70;24.90;;;;;;;;;;5016882;28;20481;-80
2023/05/21 03:15:37;;;;;;;25.80;24.07;;;;;;;;;;5016549;28;20423;-81
2023/05/21 03:18:04;;;;;;;26.50;24.60;;;;;;;;;;5016638;28;20828;-81
2023/05/21 03:20:32;;;;;;;24.50;22.97;;;;;;;;;;5016613;28;20513;-81
2023/05/21 03:22:59;;;;;;;27.60;25.80;;;;;;;;;;5016681;28;20455;-80
2023/05/21 03:25:27;;;;;;;26.80;24.87;;;;;;;;;;5016198;28;20517;-81
2023/05/21 03:27:54;;;;;;;25.70;23.90;;;;;;;;;;5016467;28;20515;-80
2023/05/21 03:30:21;;;;;;;24.93;23.40;;;;;;;;;;5016660;28;20468;-81
2023/05/21 03:32:50;;;;;;;27.47;25.63;;;;;;;;;;5016798;28;20448;-82
2023/05/21 03:35:17;;;;;;;26.20;24.50;;;;;;;;;;5016045;28;20455;-80
2023/05/21 03:37:45;;;;;;;26.07;24.40;;;;;;;;;;5016027;28;20502;-81
2023/05/21 03:40:12;;;;;;;27.87;25.87;;;;;;;;;;5016529;28;20468;-80
2023/05/21 03:42:40;;;;;;;25.97;24.20;;;;;;;;;;5016854;28;20782;-81
2023/05/21 03:45:08;;;;;;;26.80;25.00;;;;;;;;;;5017575;28;20804;-79
2023/05/21 03:47:36;;;;;;;27.10;25.30;;;;;;;;;;5016799;28;20453;-80
2023/05/21 03:50:04;;;;;;;26.30;24.60;;;;;;;;;;5016845;28;20496;-80
2023/05/21 03:52:31;;;;;;;25.60;23.73;;;;;;;;;;5016964;28;20433;-80
2023/05/21 03:54:58;;;;;;;27.37;25.47;;;;;;;;;;5017567;28;20498;-80
2023/05/21 03:57:25;;;;;;;26.57;24.67;;;;;;;;;;5021230;28;20427;-79
2023/05/21 03:59:53;;;;;;;25.00;23.30;;;;;;;;;;5019507;28;20497;-80
2023/05/21 04:02:21;;;;;;;26.17;24.37;;;;;;;;;;5017757;28;20431;-79
2023/05/21 04:04:50;;;;;;;26.27;24.50;;;;;;;;;;5017392;28;20435;-80
2023/05/21 04:07:18;;;;;;;26.47;24.77;;;;;;;;;;5016424;28;20876;-79
2023/05/21 04:09:45;;;;;;;25.37;23.67;;;;;;;;;;5017451;28;20476;-80
2023/05/21 04:12:12;;;;;;;25.30;23.80;;;;;;;;;;5017561;28;20487;-79
2023/05/21 04:14:39;;;;;;;27.57;25.37;;;;;;;;;;5017414;28;20430;-80
2023/05/21 04:17:07;;;;;;;26.40;24.60;;;;;;;;;;5026726;28;20464;-79
2023/05/21 04:19:35;;;;;;;24.13;22.63;;;;;;;;;;5036966;28;20474;-79
2023/05/21 04:22:02;;;;;;;26.13;24.50;;;;;;;;;;5038106;28;20806;-79
2023/05/21 04:24:29;;;;;;;27.03;24.97;;;;;;;;;;5031226;28;20531;-80
2023/05/21 04:26:59;;;;;;;27.03;25.23;;;;;;;;;;5018104;28;20459;-80
2023/05/21 04:29:26;;;;;;;26.73;24.97;;;;;;;;;;5018233;28;20489;-80
2023/05/21 04:31:53;;;;;;;26.40;24.50;;;;;;;;;;5017869;28;20461;-79
2023/05/21 04:34:22;;;;;;;25.70;24.00;;;;;;;;;;5017852;28;20945;-80
2023/05/21 04:36:50;;;;;;;26.00;24.20;;;;;;;;;;5014759;28;20419;-80
2023/05/21 04:39:17;;;;;;;25.97;24.27;;;;;;;;;;5015186;28;20454;-79
2023/05/21 04:41:44;;;;;;;25.47;23.60;;;;;;;;;;5014951;28;20469;-80
2023/05/21 04:44:13;;;;;;;26.47;24.57;;;;;;;;;;5017445;28;20460;-80
2023/05/21 04:46:40;;;;;;;25.00;23.40;;;;;;;;;;5017689;28;20892;-80
2023/05/21 04:49:07;;;;;;;25.90;24.30;;;;;;;;;;5014728;28;20522;-80
2023/05/21 04:51:36;;;;;;;24.97;23.23;;;;;;;;;;5014073;28;20950;-80
2023/05/21 04:54:03;;;;;;;26.43;24.33;;;;;;;;;;5022015;28;20452;-80
2023/05/21 04:56:30;;;;;;;26.53;24.53;;;;;;;;;;5027620;28;20430;-79
2023/05/21 04:58:58;;;;;;;26.63;24.87;;;;;;;;;;5023500;28;20485;-80
2023/05/21 05:01:27;;;;;;;24.90;23.30;;;;;;;;;;5033577;28;20920;-81
2023/05/21 05:03:55;;;;;;;25.13;23.53;;;;;;;;;;5039733;28;20900;-80
2023/05/21 05:06:24;;;;;;;25.40;23.80;;;;;;;;;;5036359;28;20553;-80
2023/05/21 05:08:53;;;;;;;25.30;23.57;;;;;;;;;;5025209;28;20476;-81
2023/05/21 05:11:21;;;;;;;26.10;24.30;;;;;;;;;;5033734;28;20451;-80
2023/05/21 05:13:48;;;;;;;26.03;23.77;;;;;;;;;;5036838;28;20521;-80
2023/05/21 05:16:17;;;;;;;27.03;25.03;;;;;;;;;;5035239;28;20442;-80
2023/05/21 05:18:44;;;;;;;25.53;23.90;;;;;;;;;;5036452;28;20460;-80
2023/05/21 05:21:11;;;;;;;25.63;24.03;;;;;;;;;;5035984;28;20434;-79
2023/05/21 05:23:38;;;;;;;26.43;24.63;;;;;;;;;;5036027;28;20458;-79
2023/05/21 05:26:06;;;;;;;26.87;25.17;;;;;;;;;;5035698;28;20494;-79
2023/05/21 05:28:33;;;;;;;24.93;23.37;;;;;;;;;;5035889;28;20451;-79
2023/05/21 05:31:00;;;;;;;25.93;24.33;;;;;;;;;;5035120;28;20553;-79
2023/05/21 05:33:27;;;;;;;26.10;24.40;;;;;;;;;;5036358;28;20434;-79
2023/05/21 05:35:54;;;;;;;26.53;24.77;;;;;;;;;;5035486;28;20449;-79
2023/05/21 05:38:21;;;;;;;27.07;25.20;;;;;;;;;;5035975;28;20406;-79
2023/05/21 05:40:48;;;;;;;25.63;23.93;;;;;;;;;;5035312;28;20483;-80
2023/05/21 05:43:16;;;;;;;26.53;24.50;;;;;;;;;;5036322;28;20443;-78
2023/05/21 05:45:43;;;;;;;27.77;25.83;;;;;;;;;;5035873;28;20447;-80
2023/05/21 05:48:10;;;;;;;26.37;24.67;;;;;;;;;;5036673;28;20402;-78
2023/05/21 05:50:37;;;;;;;26.80;25.13;;;;;;;;;;5035417;28;20478;-79
2023/05/21 05:53:06;;;;;;;27.57;25.57;;;;;;;;;;5036140;28;20468;-79
2023/05/21 05:55:33;;;;;;;27.00;25.10;;;;;;;;;;5034823;28;20442;-80
2023/05/21 05:58:00;;;;;;;29.50;27.10;;;;;;;;;;5049924;28;20437;-80
2023/05/21 06:00:28;;;;;;;25.27;23.67;;;;;;;;;;5053561;28;20494;-78
2023/05/21 06:02:55;;;;;;;26.63;24.90;;;;;;;;;;5053595;28;20472;-79
2023/05/21 06:05:22;;;;;;;25.33;23.63;;;;;;;;;;5045290;28;20448;-80
2023/05/21 06:07:49;;;;;;;26.40;24.60;;;;;;;;;;5039246;28;20466;-81
2023/05/21 06:10:17;;;;;;;27.17;25.40;;;;;;;;;;5037913;28;20484;-79
2023/05/21 06:12:44;;;;;;;26.33;24.73;;;;;;;;;;5036125;28;20426;-79
2023/05/21 06:15:13;;;;;;;25.93;24.30;;;;;;;;;;5035992;28;20422;-78
2023/05/21 06:17:42;;;;;;;27.00;24.80;;;;;;;;;;5035044;28;20427;-79
2023/05/21 06:20:10;;;;;;;26.33;24.57;;;;;;;;;;5035063;28;20462;-79
2023/05/21 06:22:37;;;;;;;27.73;25.83;;;;;;;;;;5036042;28;20474;-79
2023/05/21 06:25:04;;;;;;;26.57;24.83;;;;;;;;;;5036111;28;20451;-79
2023/05/21 06:27:32;;;;;;;28.27;25.47;;;;;;;;;;5035349;28;20848;-79
2023/05/21 06:29:59;;;;;;;26.23;24.43;;;;;;;;;;5035888;28;20475;-80
2023/05/21 06:32:26;;;;;;;27.30;25.50;;;;;;;;;;5036176;28;20489;-80
2023/05/21 06:34:54;;;;;;;28.20;26.30;;;;;;;;;;5034834;28;20488;-78
2023/05/21 06:37:21;;;;;;;28.07;25.93;;;;;;;;;;5035220;28;20490;-79
2023/05/21 06:39:48;;;;;;;29.57;26.93;;;;;;;;;;5035298;28;20867;-79
2023/05/21 06:42:15;;;;;;;28.03;26.23;;;;;;;;;;5035786;28;20842;-79
2023/05/21 06:44:42;;;;;;;25.83;24.13;;;;;;;;;;5035090;28;20426;-80
2023/05/21 06:47:10;;;;;;;27.73;25.87;;;;;;;;;;5038457;28;20476;-80
2023/05/21 06:49:37;;;;;;;26.70;24.93;;;;;;;;;;5042362;28;20475;-80
2023/05/21 06:52:05;;;;;;;26.47;24.37;;;;;;;;;;5027640;28;20508;-79
2023/05/21 06:54:33;;;;;;;27.17;25.43;;;;;;;;;;5023814;28;20452;-80
2023/05/21 06:57:00;;;;;;;26.40;24.70;;;;;;;;;;5025539;28;20431;-79
2023/05/21 06:59:27;;;;;;;25.77;24.03;;;;;;;;;;5036274;28;20473;-79
2023/05/21 07:01:54;;;;;;;26.30;24.50;;;;;;;;;;5035915;28;20448;-81
2023/05/21 07:04:23;;;;;;;27.03;25.03;;;;;;;;;;5024732;28;20900;-92
2023/05/21 07:06:51;;;;;;;26.90;25.00;;;;;;;;;;5030655;28;20488;-91
2023/05/21 07:09:19;;;;;;;27.47;25.57;;;;;;;;;;5014792;28;20525;-90
2023/05/21 07:11:46;;;;;;;27.03;25.33;;;;;;;;;;5032084;28;20468;-88
2023/05/21 07:14:13;;;;;;;26.67;24.77;;;;;;;;;;5035745;28;20430;-89
2023/05/21 07:16:40;;;;;;;27.03;25.23;;;;;;;;;;5034595;28;20451;-89
2023/05/21 07:19:08;;;;;;;27.03;25.10;;;;;;;;;;5035492;28;21057;-90
2023/05/21 07:21:35;;;;;;;26.30;24.37;;;;;;;;;;5016750;28;20447;-88
2023/05/21 07:24:02;;;;;;;27.23;25.40;;;;;;;;;;5015720;28;20507;-90
2023/05/21 07:26:31;;;;;;;27.80;25.90;;;;;;;;;;5015308;28;20802;-88
2023/05/21 07:28:58;;;;;;;27.00;25.20;;;;;;;;;;5015887;28;20431;-90
2023/05/21 07:31:26;;;;;;;28.87;26.87;;;;;;;;;;5015519;28;20483;-89
2023/05/21 07:33:53;;;;;;;26.67;24.87;;;;;;;;;;5016187;28;20427;-84
2023/05/21 07:36:20;;;;;;;29.00;26.80;;;;;;;;;;5017042;28;20442;-82
2023/05/21 07:38:47;;;;;;;27.20;25.30;;;;;;;;;;5017465;28;20438;-83
2023/05/21 07:41:14;;;;;;;28.67;26.40;;;;;;;;;;5016176;28;20481;-88
2023/05/21 07:43:42;;;;;;;27.03;25.13;;;;;;;;;;5014338;28;20476;-81
2023/05/21 07:46:10;;;;;;;27.70;25.80;;;;;;;;;;5014061;28;20452;-78
2023/05/21 07:48:37;;;;;;;27.40;25.37;;;;;;;;;;5014663;28;20468;-78
2023/05/21 07:51:04;;;;;;;27.90;25.90;;;;;;;;;;5013770;28;20863;-78
2023/05/21 07:53:32;;;;;;;27.50;25.60;;;;;;;;;;5014592;28;20501;-78
2023/05/21 07:55:59;;;;;;;28.83;27.00;;;;;;;;;;5020379;28;20453;-78
2023/05/21 07:58:26;;;;;;;28.80;26.83;;;;;;;;;;5017715;28;20503;-79
2023/05/21 08:00:54;;;;;;;28.67;26.20;;;;;;;;;;5031117;28;20434;-78
2023/05/21 08:03:21;;;;;;;28.47;26.60;;;;;;;;;;5032087;28;20429;-80
2023/05/21 08:05:49;;;;;;;27.47;25.67;;;;;;;;;;5034029;28;20456;-79
2023/05/21 08:08:18;;;;;;;28.37;26.40;;;;;;;;;;5035210;28;20458;-77
2023/05/21 08:10:46;;;;;;;28.50;26.50;;;;;;;;;;5034017;28;20475;-78
2023/05/21 08:13:13;;;;;;;26.50;24.70;;;;;;;;;;5033884;28;20480;-78
2023/05/21 08:15:41;;;;;;;30.87;28.73;;;;;;;;;;5032167;28;20422;-78
2023/05/21 08:18:10;;;;;;;27.03;25.33;;;;;;;;;;5030823;28;20525;-78
2023/05/21 08:20:37;;;;;;;27.20;25.40;;;;;;;;;;5032841;28;20484;-78
2023/05/21 08:23:04;;;;;;;28.70;26.70;;;;;;;;;;5033018;28;20911;-78
2023/05/21 08:25:32;;;;;;;28.60;26.33;;;;;;;;;;5032600;28;20481;-79
2023/05/21 08:27:59;;;;;;;28.70;26.57;;;;;;;;;;5033150;28;20493;-77
2023/05/21 08:30:26;;;;;;;29.80;27.70;;;;;;;;;;5037117;28;20450;-78
2023/05/21 08:32:53;;;;;;;29.10;27.10;;;;;;;;;;5036985;28;20546;-78
2023/05/21 08:35:22;;;;;;;30.63;28.43;;;;;;;;;;5037074;28;20451;-78
2023/05/21 08:37:49;;;;;;;28.10;26.30;;;;;;;;;;5036119;28;20480;-78
2023/05/21 08:40:16;;;;;;;29.13;27.03;;;;;;;;;;5036882;28;20497;-78
2023/05/21 08:42:44;;;;;;;29.70;27.40;;;;;;;;;;5036972;28;20434;-78
2023/05/21 08:45:13;;;;;;;29.47;27.57;;;;;;;;;;5036842;28;20475;-78
2023/05/21 08:47:42;;;;;;;29.57;27.27;;;;;;;;;;5035922;28;20487;-77
2023/05/21 08:50:10;;;;;;;31.83;29.63;;;;;;;;;;5036263;28;20497;-77
2023/05/21 08:52:38;;;;;;;31.70;28.97;;;;;;;;;;5036656;28;20446;-78
2023/05/21 08:55:05;;;;;;;28.80;26.90;;;;;;;;;;5036986;28;20441;-78
2023/05/21 08:57:33;;;;;;;29.40;27.43;;;;;;;;;;5036142;28;20415;-78
2023/05/21 09:00:01;;;;;;;29.93;28.03;;;;;;;;;;5036033;28;20871;-78
2023/05/21 09:02:31;;;;;;;29.03;27.20;;;;;;;;;;5036559;28;20833;-78
2023/05/21 09:05:01;;;;;;;29.10;27.10;;;;;;;;;;5036652;28;20472;-77
2023/05/21 09:07:30;;;;;;;29.37;27.17;;;;;;;;;;5035891;28;20501;-78
2023/05/21 09:10:01;;;;;;;28.33;26.40;;;;;;;;;;5038983;28;20508;-78
2023/05/21 09:12:29;;;;;;;30.43;27.87;;;;;;;;;;5039964;28;20409;-78
2023/05/21 09:14:57;;;;;;;31.33;29.03;;;;;;;;;;5036923;28;20450;-78
2023/05/21 09:17:24;;;;;;;30.23;28.13;;;;;;;;;;5036147;28;20425;-78
2023/05/21 09:20:09;;;;;;;31.27;28.87;;;;;;;;;;5035685;28;20997;-78
2023/05/21 09:22:36;;;;;;;32.30;29.90;;;;;;;;;;5036286;28;20457;-78
2023/05/21 09:25:07;;;;;;;31.87;29.50;;;;;;;;;;5036373;28;20854;-78
2023/05/21 09:27:34;;;;;;;30.00;28.07;;;;;;;;;;5035589;28;20878;-77
2023/05/21 09:30:02;;;;;;;31.30;29.20;;;;;;;;;;5035623;28;20506;-78
2023/05/21 09:32:29;;;;;;;30.63;28.50;;;;;;;;;;5036213;28;20457;-77
2023/05/21 09:34:56;;;;;;;31.43;29.23;;;;;;;;;;5036269;28;20428;-77
2023/05/21 09:37:23;;;;;;;29.40;27.30;;;;;;;;;;5035596;28;20454;-78
2023/05/21 09:39:50;;;;;;;30.37;28.27;;;;;;;;;;5034508;28;20496;-78
2023/05/21 09:42:21;;;;;;;32.27;29.93;;;;;;;;;;5035368;28;20456;-77
2023/05/21 09:44:48;;;;;;;29.77;27.73;;;;;;;;;;5035842;28;20437;-77
2023/05/21 09:47:20;;;;;;;30.33;28.33;;;;;;;;;;5035276;28;20845;-78
2023/05/21 09:49:47;;;;;;;34.23;31.33;;;;;;;;;;5035443;28;20449;-78
2023/05/21 09:52:23;;;;;;;31.20;29.03;;;;;;;;;;5036169;28;20458;-78
2023/05/21 09:54:52;;;;;;;31.33;29.17;;;;;;;;;;5035636;28;20451;-77
2023/05/21 09:57:25;;;;;;;31.17;28.80;;;;;;;;;;5035333;28;20464;-78
2023/05/21 09:59:52;;;;;;;30.20;28.20;;;;;;;;;;5035233;28;20479;-78
2023/05/21 10:02:20;;;;;;;31.83;29.57;;;;;;;;;;5034699;28;21043;-78
2023/05/21 10:04:48;;;;;;;31.83;29.63;;;;;;;;;;5035607;28;20449;-78
2023/05/21 10:07:16;;;;;;;31.20;29.00;;;;;;;;;;5034779;28;20486;-78
2023/05/21 10:09:45;;;;;;;37.80;34.80;;;;;;;;;;5035780;28;20506;-78
2023/05/21 10:12:12;;;;;;;32.13;30.03;;;;;;;;;;5043405;28;20505;-78
2023/05/21 10:14:42;;;;;;;34.30;31.77;;;;;;;;;;5035686;28;20516;-78
2023/05/21 10:17:10;;;;;;;32.00;29.60;;;;;;;;;;5035062;28;20898;-78
2023/05/21 10:19:37;;;;;;;33.30;31.03;;;;;;;;;;5035629;28;20456;-78
2023/05/21 10:22:05;;;;;;;32.93;30.63;;;;;;;;;;5035476;28;20448;-78
2023/05/21 10:24:32;;;;;;;32.00;29.80;;;;;;;;;;5035485;28;20452;-78
2023/05/21 10:27:00;;;;;;;31.87;29.57;;;;;;;;;;5034848;28;20459;-78
2023/05/21 10:29:27;;;;;;;32.37;30.07;;;;;;;;;;5035236;28;20814;-80
2023/05/21 10:31:56;;;;;;;30.37;28.27;;;;;;;;;;5035008;28;20463;-78
2023/05/21 10:34:24;;;;;;;31.77;29.40;;;;;;;;;;5035064;28;20501;-78
2023/05/21 10:36:51;;;;;;;30.50;28.20;;;;;;;;;;5034173;28;20963;-78
2023/05/21 10:39:19;;;;;;;31.63;29.43;;;;;;;;;;5042062;28;20467;-78
2023/05/21 10:41:51;;;;;;;34.27;31.83;;;;;;;;;;5045963;28;20405;-78
2023/05/21 10:44:22;;;;;;;32.43;30.23;;;;;;;;;;5045181;28;20872;-78
2023/05/21 10:47:01;;;;;;;31.40;29.20;;;;;;;;;;5034860;28;20470;-78
2023/05/21 10:49:38;;;;;;;33.90;31.20;;;;;;;;;;5035236;28;20522;-78
2023/05/21 10:52:09;;;;;;;31.93;29.70;;;;;;;;;;5034429;28;20474;-79
2023/05/21 10:54:48;;;;;;;34.83;31.87;;;;;;;;;;5034423;28;20993;-78
2023/05/21 10:57:20;;;;;;;31.70;29.40;;;;;;;;;;5034508;28;20408;-78
2023/05/21 10:59:47;;;;;;;27.83;25.83;;;;;;;;;;5034954;28;20524;-78
2023/05/21 11:02:18;;;;;;;31.90;29.60;;;;;;;;;;5035150;28;20424;-78
2023/05/21 11:04:47;;;;;;;31.97;29.67;;;;;;;;;;5034447;28;20496;-78
2023/05/21 11:07:15;;;;;;;31.73;29.60;;;;;;;;;;5034420;28;20838;-78
2023/05/21 11:09:42;;;;;;;34.03;31.60;;;;;;;;;;5034879;28;20479;-78
2023/05/21 11:12:11;;;;;;;34.67;32.17;;;;;;;;;;5035117;28;20426;-78
2023/05/21 11:14:40;;;;;;;31.40;29.00;;;;;;;;;;5034908;28;20475;-79
2023/05/21 11:17:11;;;;;;;32.57;30.27;;;;;;;;;;5034202;28;20454;-78
2023/05/21 11:19:40;;;;;;;32.40;29.90;;;;;;;;;;5034052;28;21034;-78
2023/05/21 11:22:20;;;;;;;33.57;31.20;;;;;;;;;;5034805;28;20487;-78
2023/05/21 11:24:47;;;;;;;32.33;30.07;;;;;;;;;;5033874;28;20528;-78
2023/05/21 11:27:14;;;;;;;31.77;29.27;;;;;;;;;;5033820;28;20497;-78
2023/05/21 11:29:45;;;;;;;31.50;29.40;;;;;;;;;;5034231;28;20538;-78
2023/05/21 11:32:14;;;;;;;32.93;30.33;;;;;;;;;;5033990;28;20866;-78
2023/05/21 11:34:44;;;;;;;32.83;30.40;;;;;;;;;;5033656;28;20522;-78
2023/05/21 11:37:26;;;;;;;32.57;30.23;;;;;;;;;;5033486;28;20471;-78
2023/05/21 11:39:53;;;;;;;31.93;29.80;;;;;;;;;;5033679;28;20863;-78
2023/05/21 11:42:33;;;;;;;32.43;30.13;;;;;;;;;;5034082;28;20444;-78
2023/05/21 11:45:00;;;;;;;31.90;29.73;;;;;;;;;;5033666;28;20481;-77
2023/05/21 11:47:28;;;;;;;33.40;30.90;;;;;;;;;;5033355;28;20437;-78
2023/05/21 11:49:57;;;;;;;36.83;33.70;;;;;;;;;;5033500;28;21029;-78
2023/05/21 11:52:25;;;;;;;32.70;30.40;;;;;;;;;;5033859;28;20489;-78
2023/05/21 11:54:54;;;;;;;32.27;29.97;;;;;;;;;;5033460;28;20505;-78
2023/05/21 11:57:21;;;;;;;34.10;31.70;;;;;;;;;;5033274;28;20447;-78
2023/05/21 11:59:50;;;;;;;33.63;31.03;;;;;;;;;;5035949;28;20845;-79
2023/05/21 12:02:17;;;;;;;33.47;31.13;;;;;;;;;;5033856;28;20764;-77
2023/05/21 12:04:45;;;;;;;32.87;30.33;;;;;;;;;;5033790;28;20478;-78
2023/05/21 12:07:14;;;;;;;33.60;31.27;;;;;;;;;;5032753;28;20855;-78
2023/05/21 12:09:41;;;;;;;34.00;31.50;;;;;;;;;;5033598;28;20465;-78
2023/05/21 12:12:09;;;;;;;34.63;32.20;;;;;;;;;;5034740;28;20456;-78
2023/05/21 12:14:36;;;;;;;32.93;30.70;;;;;;;;;;5035346;28;20517;-79
2023/05/21 12:17:03;;;;;;;33.27;30.80;;;;;;;;;;5033830;28;20471;-78
2023/05/21 12:19:33;;;;;;;33.97;31.37;;;;;;;;;;5034639;28;20442;-78
2023/05/21 12:22:01;;;;;;;35.40;32.83;;;;;;;;;;5040389;28;20432;-78
2023/05/21 12:24:29;;;;;;;34.30;31.90;;;;;;;;;;5038532;28;20426;-79
2023/05/21 12:26:58;;;;;;;35.63;33.17;;;;;;;;;;5032986;28;20944;-78
2023/05/21 12:29:25;;;;;;;33.30;30.90;;;;;;;;;;5034047;28;21006;-78
2023/05/21 12:31:52;;;;;;;36.20;33.50;;;;;;;;;;5034084;28;20429;-78
2023/05/21 12:34:34;;;;;;;34.63;32.20;;;;;;;;;;5034167;28;20443;-78
2023/05/21 12:37:02;;;;;;;34.33;31.83;;;;;;;;;;5033001;28;20474;-78
2023/05/21 12:39:32;;;;;;;35.03;32.63;;;;;;;;;;5033599;28;20946;-78
2023/05/21 12:41:59;;;;;;;35.00;32.70;;;;;;;;;;5034046;28;20433;-78
2023/05/21 12:44:29;;;;;;;35.40;32.97;;;;;;;;;;5033738;28;20425;-78
2023/05/21 12:46:57;;;;;;;35.90;33.20;;;;;;;;;;5033405;28;20452;-78
2023/05/21 12:49:37;;;;;;;34.00;31.37;;;;;;;;;;5033152;28;20494;-78
2023/05/21 12:52:09;;;;;;;33.23;31.03;;;;;;;;;;5033324;28;20976;-78
2023/05/21 12:54:38;;;;;;;36.17;33.37;;;;;;;;;;5033529;28;20434;-78
2023/05/21 12:57:08;;;;;;;36.20;33.50;;;;;;;;;;5033254;28;20487;-78
2023/05/21 12:59:48;;;;;;;35.77;33.37;;;;;;;;;;5033379;28;20462;-79
2023/05/21 13:02:16;;;;;;;33.90;31.50;;;;;;;;;;5034198;28;20514;-78
2023/05/21 13:04:43;;;;;;;35.13;32.73;;;;;;;;;;5033577;28;20434;-78
2023/05/21 13:07:10;;;;;;;38.43;35.70;;;;;;;;;;5032682;28;20932;-79
2023/05/21 13:09:39;;;;;;;35.37;32.97;;;;;;;;;;5032940;28;20536;-78
2023/05/21 13:12:06;;;;;;;36.40;33.77;;;;;;;;;;5033533;28;20431;-78
2023/05/21 13:14:33;;;;;;;35.77;33.27;;;;;;;;;;5034869;28;20484;-78
2023/05/21 13:17:00;;;;;;;35.27;32.97;;;;;;;;;;5036786;28;20443;-78
2023/05/21 13:19:27;;;;;;;37.53;34.93;;;;;;;;;;5036540;28;20892;-78
2023/05/21 13:21:54;;;;;;;36.53;33.93;;;;;;;;;;5036931;28;20480;-78
2023/05/21 13:24:21;;;;;;;34.50;32.10;;;;;;;;;;5036751;28;20426;-78
2023/05/21 13:26:50;;;;;;;37.60;35.17;;;;;;;;;;5035824;28;20962;-78
2023/05/21 13:29:16;;;;;;;34.93;32.63;;;;;;;;;;5035864;28;20494;-78
2023/05/21 13:31:44;;;;;;;34.40;32.17;;;;;;;;;;5036508;28;20410;-78
2023/05/21 13:34:11;;;;;;;37.23;34.20;;;;;;;;;;5036631;28;20447;-79
2023/05/21 13:36:38;;;;;;;35.83;33.30;;;;;;;;;;5035915;28;20556;-78
2023/05/21 13:39:05;;;;;;;38.93;36.13;;;;;;;;;;5036659;28;20480;-78
2023/05/21 13:41:32;;;;;;;37.67;34.93;;;;;;;;;;5035603;28;20491;-78
2023/05/21 13:44:01;;;;;;;35.27;32.83;;;;;;;;;;5036448;28;20430;-79
2023/05/21 13:46:28;;;;;;;38.00;35.40;;;;;;;;;;5035652;28;20426;-78
2023/05/21 13:48:55;;;;;;;37.17;34.63;;;;;;;;;;5035943;28;20884;-78
2023/05/21 13:51:22;;;;;;;37.73;35.03;;;;;;;;;;5036282;28;20476;-78
2023/05/21 13:53:49;;;;;;;38.87;36.07;;;;;;;;;;5036828;28;20456;-78
2023/05/21 13:56:16;;;;;;;37.27;34.47;;;;;;;;;;5035758;28;20418;-78
2023/05/21 13:58:44;;;;;;;38.63;35.93;;;;;;;;;;5036283;28;20440;-78
2023/05/21 14:01:13;;;;;;;36.80;34.17;;;;;;;;;;5035926;28;20529;-78
2023/05/21 14:03:40;;;;;;;38.13;35.53;;;;;;;;;;5036076;28;20460;-78
2023/05/21 14:06:07;;;;;;;35.23;32.83;;;;;;;;;;5041409;28;20439;-79
2023/05/21 14:08:34;;;;;;;36.70;34.20;;;;;;;;;;5038037;28;20458;-78
2023/05/21 14:11:01;;;;;;;37.13;34.53;;;;;;;;;;5035939;28;20959;-78
2023/05/21 14:13:29;;;;;;;38.37;35.77;;;;;;;;;;5036072;28;20405;-78
2023/05/21 14:15:56;;;;;;;35.50;33.10;;;;;;;;;;5035552;28;20856;-78
2023/05/21 14:18:24;;;;;;;38.87;36.17;;;;;;;;;;5036148;28;20454;-78
2023/05/21 14:20:51;;;;;;;38.37;35.57;;;;;;;;;;5036030;28;20443;-79